Airfield :
LOGIN :

Register | Disclaimer

   EN    FR    IT 

 










Legend :    VFR   Marginal VFR   IFR   Intensive IFR   Very Intensive IFR
Visi :
Ceiling :
>= 8 km
>= 3000ft
5 to 8 km
1000 to 3000 ft
1500m to 5 km
500 to 1000 ft
800 to 1500m
200 to 500 ft
< 800m
< 200 ft
Symbols :   Thunderstorms  Fog  Heavy snow  Heavy precipitations  Wind > 20 kt
SIGMETs :     Misc.  Thunderstorms  Icing  Turbulence  Mountain Waves  Volcanic Ashes







- Airport Elevation : 14 ft
- IATA code : BRE


EDDW - Bremen Neuenland

CURRENT METAR :
  • 212250Z AUTO 05003KT 9999 // NCD 20/13 Q1011

EXPIRED METARs :
  • 212220Z 04004KT CAVOK 20/13 Q1011
  • 212150Z 04003KT CAVOK 20/13 Q1011
  • 212120Z 02002KT CAVOK 21/12 Q1011
  • 212050Z 04003KT 010V080 CAVOK 21/13 Q1011 NOSIG
  • 212020Z 05003KT 020V080 CAVOK 21/13 Q1011 NOSIG
  • 211950Z 03003KT CAVOK 22/13 Q1011 NOSIG

TAF TAF EDDW
Valid from the 21 at 18:00 until the 22 at 18:00 UTC


211700Z 2118/2218 05004KT CAVOK
PROB30
TEMPO 2202/2207 SCT045CB
BECMG 2204/2206 30006KT
BECMG 2209/2211 32011KT
No reported NOTAMs for that airfield.



MET'MAP, your aeronautical weather chart ! - Copyright ORBIFLY December 2007 - Disclaimer

ORBIFLY MET'MAP TEAM :

Programming & Development : Alexandra Zaïnal
Concept & Development : Baudouin d'Aumeries
Co-Development & Prog : Marc-Olivier Méhu
Technical & hardware support : Manuel Goepfert

Contact : metmap@orbifly.com




SOURCES & CREDITS :

   NOAA